Time;durP1;ratioP1;P1;durP2;ratioP2;P2;SDS_P1;SDS_P2;PMS_P1;PMS_P2;Temp;Humidity;BMP_temperature;BMP_pressure;BME280_temperature;BME280_humidity;BME280_pressure;Samples;Min_cycle;Max_cycle;Signal;HPM_P1;HPM_P2
2024/03/21 00:01:35;;;;;;;2.03;1.83;;;17.30;62.70;;;;;;5034023;28;20184;-58
2024/03/21 00:04:01;;;;;;;3.33;1.92;;;17.30;62.80;;;;;;5034571;28;20298;-58
2024/03/21 00:06:27;;;;;;;2.83;2.05;;;17.20;62.70;;;;;;5033832;28;21180;-58
2024/03/21 00:08:52;;;;;;;1.95;1.85;;;17.20;62.60;;;;;;5034545;28;20600;-59
2024/03/21 00:11:19;;;;;;;3.80;2.20;;;17.20;62.60;;;;;;5033622;28;20226;-59
2024/03/21 00:13:44;;;;;;;2.28;2.00;;;17.20;62.70;;;;;;5034472;28;20176;-59
2024/03/21 00:16:11;;;;;;;2.58;2.38;;;17.20;62.70;;;;;;5033813;28;20354;-59
2024/03/21 00:18:37;;;;;;;2.25;2.05;;;17.20;62.80;;;;;;5033657;28;20176;-58
2024/03/21 00:21:03;;;;;;;2.40;2.20;;;17.20;62.70;;;;;;5034382;28;20175;-59
2024/03/21 00:23:30;;;;;;;2.60;2.38;;;17.20;62.80;;;;;;5033989;28;20191;-58
2024/03/21 00:26:02;;;;;;;3.20;2.50;;;17.20;62.70;;;;;;5033447;28;20571;-59
2024/03/21 00:28:28;;;;;;;3.22;2.50;;;17.20;62.70;;;;;;5033711;28;20179;-58
2024/03/21 00:30:56;;;;;;;2.75;2.53;;;17.10;62.60;;;;;;5034070;28;20179;-58
2024/03/21 00:33:25;;;;;;;3.88;2.97;;;17.10;62.60;;;;;;5033280;28;20642;-58
2024/03/21 00:35:51;;;;;;;3.15;2.58;;;17.10;62.60;;;;;;5033856;28;20519;-58
2024/03/21 00:38:17;;;;;;;3.70;2.50;;;17.10;62.60;;;;;;5033823;28;20183;-58
2024/03/21 00:40:42;;;;;;;3.22;2.80;;;17.10;62.60;;;;;;5033045;28;20231;-59
2024/03/21 00:43:08;;;;;;;3.88;2.60;;;17.10;62.60;;;;;;5033565;28;20174;-58
2024/03/21 00:45:33;;;;;;;2.65;2.45;;;17.10;62.70;;;;;;5033789;28;20211;-58
2024/03/21 00:48:02;;;;;;;3.00;2.80;;;17.10;62.60;;;;;;5032955;28;20179;-58
2024/03/21 00:50:31;;;;;;;2.70;2.50;;;17.10;62.70;;;;;;5033523;28;20184;-59
2024/03/21 00:52:56;;;;;;;3.38;2.70;;;17.10;62.70;;;;;;5033327;28;20693;-58
2024/03/21 00:55:22;;;;;;;2.88;2.55;;;17.10;62.60;;;;;;5032735;28;20187;-58
2024/03/21 00:57:47;;;;;;;3.60;2.92;;;17.10;62.70;;;;;;5033655;28;20175;-58
2024/03/21 01:00:13;;;;;;;2.50;2.30;;;17.10;62.70;;;;;;5033408;28;20191;-58
2024/03/21 01:02:40;;;;;;;2.72;2.53;;;17.10;62.70;;;;;;5032964;28;20168;-58
2024/03/21 01:05:06;;;;;;;2.58;2.38;;;17.10;62.70;;;;;;5033443;28;20222;-58
2024/03/21 01:07:32;;;;;;;2.58;2.38;;;17.10;62.70;;;;;;5032652;28;20186;-59
2024/03/21 01:09:58;;;;;;;2.20;2.05;;;17.00;62.70;;;;;;5033418;28;20252;-58
2024/03/21 01:12:23;;;;;;;2.70;2.42;;;17.00;62.70;;;;;;5033000;28;20258;-58
2024/03/21 01:14:49;;;;;;;3.25;2.30;;;17.00;62.70;;;;;;5032857;28;20184;-58
2024/03/21 01:17:14;;;;;;;2.83;2.33;;;17.00;62.70;;;;;;5033082;28;20180;-58
2024/03/21 01:19:40;;;;;;;2.67;2.47;;;17.00;62.70;;;;;;5033491;28;20172;-57
2024/03/21 01:22:05;;;;;;;2.65;2.40;;;17.00;62.70;;;;;;5032538;28;20175;-58
2024/03/21 01:24:31;;;;;;;2.40;2.20;;;17.00;62.70;;;;;;5032858;28;20196;-57
2024/03/21 01:26:56;;;;;;;2.47;2.28;;;17.00;62.70;;;;;;5033043;28;20519;-58
2024/03/21 01:29:22;;;;;;;2.65;2.45;;;17.00;62.80;;;;;;5031702;28;20172;-58
2024/03/21 01:31:47;;;;;;;2.60;2.40;;;17.00;62.80;;;;;;5033089;28;20180;-58
2024/03/21 01:34:13;;;;;;;3.00;2.45;;;17.00;62.80;;;;;;5032628;28;20316;-58
2024/03/21 01:36:46;;;;;;;3.35;3.10;;;17.00;62.80;;;;;;5032383;28;20207;-58
2024/03/21 01:39:12;;;;;;;2.67;2.47;;;17.00;62.80;;;;;;5032563;28;20184;-59
2024/03/21 01:41:38;;;;;;;2.92;2.63;;;17.00;62.70;;;;;;5032598;28;20227;-58
2024/03/21 01:44:03;;;;;;;3.08;2.78;;;17.00;62.80;;;;;;5032105;28;20794;-58
2024/03/21 01:46:29;;;;;;;2.80;2.50;;;17.00;62.80;;;;;;5032291;28;20191;-58
2024/03/21 01:48:54;;;;;;;3.60;2.83;;;17.00;62.70;;;;;;5032582;28;20259;-58
2024/03/21 01:51:22;;;;;;;3.00;2.80;;;17.00;62.80;;;;;;5031690;28;20314;-58
2024/03/21 01:53:47;;;;;;;3.22;2.92;;;17.00;62.80;;;;;;5032508;28;20179;-59
2024/03/21 01:56:14;;;;;;;3.00;2.80;;;17.00;62.80;;;;;;5032072;28;20168;-58
2024/03/21 01:58:39;;;;;;;3.15;2.85;;;17.00;62.80;;;;;;5031950;28;20190;-58
2024/03/21 02:01:30;;;;;;;3.58;3.15;;;17.00;62.80;;;;;;5032506;28;20168;-58
2024/03/21 02:03:56;;;;;;;3.47;3.17;;;17.00;62.80;;;;;;5031561;28;20510;-58
2024/03/21 02:06:23;;;;;;;3.13;2.83;;;16.90;62.70;;;;;;5031954;28;20321;-58
2024/03/21 02:08:50;;;;;;;3.50;3.20;;;16.90;62.80;;;;;;5032557;28;20172;-58
2024/03/21 02:11:15;;;;;;;3.10;2.85;;;16.90;62.80;;;;;;5031263;28;20180;-59
2024/03/21 02:13:41;;;;;;;3.47;3.13;;;16.90;62.80;;;;;;5032179;28;20229;-58
2024/03/21 02:16:07;;;;;;;4.50;3.42;;;16.90;62.80;;;;;;5032180;28;20180;-59
2024/03/21 02:18:32;;;;;;;3.75;3.42;;;16.90;62.70;;;;;;5031375;28;20254;-58
2024/03/21 02:20:58;;;;;;;3.70;3.17;;;16.90;62.70;;;;;;5031953;28;20190;-58
2024/03/21 02:23:23;;;;;;;3.08;2.83;;;16.90;62.80;;;;;;5031813;28;20184;-59
2024/03/21 02:25:49;;;;;;;3.53;3.22;;;16.90;62.80;;;;;;5031282;28;20728;-58
2024/03/21 02:28:14;;;;;;;3.25;2.80;;;16.90;62.80;;;;;;5031754;28;20172;-57
2024/03/21 02:30:41;;;;;;;3.20;2.90;;;16.90;62.80;;;;;;5031906;28;20623;-58
2024/03/21 02:33:07;;;;;;;3.92;3.08;;;17.00;62.90;;;;;;5031289;28;20179;-58
2024/03/21 02:35:32;;;;;;;3.97;3.30;;;16.90;62.80;;;;;;5031872;28;20167;-58
2024/03/21 02:37:58;;;;;;;3.10;2.80;;;16.90;62.80;;;;;;5032056;28;20537;-58
2024/03/21 02:40:23;;;;;;;4.20;3.80;;;16.90;62.80;;;;;;5030408;28;20712;-58
2024/03/21 02:42:49;;;;;;;5.13;3.80;;;16.90;62.80;;;;;;5031269;28;20171;-58
2024/03/21 02:45:17;;;;;;;3.00;2.80;;;16.90;62.80;;;;;;5031274;28;20212;-58
2024/03/21 02:47:43;;;;;;;3.97;3.58;;;16.90;62.80;;;;;;5031207;28;20230;-58
2024/03/21 02:50:08;;;;;;;4.10;3.67;;;16.80;62.70;;;;;;5031406;28;20172;-58
2024/03/21 02:52:34;;;;;;;3.38;3.08;;;16.90;62.80;;;;;;5031781;28;20172;-58
2024/03/21 02:55:00;;;;;;;4.45;3.63;;;16.90;62.80;;;;;;5031162;28;20178;-59
2024/03/21 02:57:25;;;;;;;4.15;3.70;;;16.90;62.80;;;;;;5031542;28;20183;-58
2024/03/21 02:59:51;;;;;;;3.90;3.30;;;16.90;62.80;;;;;;5031721;28;20626;-58
2024/03/21 03:02:17;;;;;;;3.67;3.38;;;16.90;62.90;;;;;;5030725;28;20176;-57
2024/03/21 03:04:43;;;;;;;4.32;3.35;;;16.90;62.90;;;;;;5031575;28;20212;-58
2024/03/21 03:07:08;;;;;;;4.47;4.03;;;16.90;62.80;;;;;;5030827;28;20171;-58
2024/03/21 03:09:34;;;;;;;4.20;3.72;;;16.90;62.90;;;;;;5031792;28;20226;-58
2024/03/21 03:11:59;;;;;;;4.03;3.65;;;16.90;62.90;;;;;;5031536;28;20168;-58
2024/03/21 03:14:25;;;;;;;4.90;3.65;;;16.80;62.80;;;;;;5030684;28;20175;-58
2024/03/21 03:16:50;;;;;;;4.13;3.72;;;16.80;62.80;;;;;;5031503;28;20635;-58
2024/03/21 03:19:16;;;;;;;3.90;3.60;;;16.90;62.80;;;;;;5031182;28;20179;-58
2024/03/21 03:21:41;;;;;;;3.38;3.08;;;16.80;62.80;;;;;;5030817;28;20180;-58
2024/03/21 03:24:07;;;;;;;4.07;3.63;;;16.80;62.80;;;;;;5031577;28;20168;-58
2024/03/21 03:26:33;;;;;;;4.28;3.88;;;16.90;62.80;;;;;;5031333;28;20623;-57
2024/03/21 03:28:58;;;;;;;4.20;3.80;;;16.80;62.70;;;;;;5030769;28;20180;-58
2024/03/21 03:31:25;;;;;;;3.90;3.38;;;16.80;62.70;;;;;;5031219;28;20172;-58
2024/03/21 03:36:35;;;;;;;4.05;3.60;;;16.80;62.70;;;;;;5030782;28;20232;-58
2024/03/21 03:39:01;;;;;;;4.15;3.20;;;16.90;62.90;;;;;;5031160;28;20176;-58
2024/03/21 03:41:27;;;;;;;4.50;3.65;;;16.80;62.70;;;;;;5030922;28;20242;-58
2024/03/21 03:43:52;;;;;;;4.10;3.70;;;16.80;62.70;;;;;;5030584;28;20258;-59
2024/03/21 03:46:18;;;;;;;4.45;4.05;;;16.80;62.70;;;;;;5031002;28;20658;-57
2024/03/21 03:48:43;;;;;;;4.32;3.92;;;16.80;62.70;;;;;;5031169;28;20601;-58
2024/03/21 03:51:09;;;;;;;4.65;3.92;;;16.80;62.80;;;;;;5030137;28;20302;-58
2024/03/21 03:53:34;;;;;;;5.18;4.38;;;16.80;62.80;;;;;;5033563;28;20171;-58
2024/03/21 03:56:00;;;;;;;4.78;4.25;;;16.80;62.80;;;;;;5034734;28;20255;-59
2024/03/21 03:58:26;;;;;;;3.55;3.25;;;16.80;62.80;;;;;;5033865;28;20298;-58
2024/03/21 04:00:58;;;;;;;4.80;4.30;;;16.80;62.70;;;;;;5034665;28;20210;-58
2024/03/21 04:03:24;;;;;;;4.10;3.80;;;16.80;62.80;;;;;;5033543;28;20757;-58
2024/03/21 04:06:00;;;;;;;4.65;4.07;;;16.80;62.80;;;;;;5034702;28;20332;-58
2024/03/21 04:08:25;;;;;;;4.75;4.32;;;16.80;62.80;;;;;;5034348;28;20191;-58
2024/03/21 04:10:51;;;;;;;5.05;4.28;;;16.80;62.80;;;;;;5033636;28;20172;-58
2024/03/21 04:13:17;;;;;;;4.72;4.20;;;16.80;62.80;;;;;;5034140;28;20183;-59
2024/03/21 04:15:42;;;;;;;4.68;4.25;;;16.80;62.80;;;;;;5034412;28;20168;-58
2024/03/21 04:18:08;;;;;;;4.72;4.32;;;16.80;62.80;;;;;;5033564;28;20638;-57
2024/03/21 04:20:33;;;;;;;5.22;4.28;;;16.70;62.80;;;;;;5034516;28;20538;-58
2024/03/21 04:22:59;;;;;;;4.35;3.95;;;16.70;62.70;;;;;;5034277;28;20343;-58
2024/03/21 04:25:24;;;;;;;5.40;4.90;;;16.70;62.80;;;;;;5033265;28;20204;-58
2024/03/21 04:27:50;;;;;;;5.25;3.55;;;16.80;62.80;;;;;;5034242;28;20172;-58
2024/03/21 04:30:15;;;;;;;4.85;4.03;;;16.70;63.60;;;;;;5033718;28;20183;-58
2024/03/21 04:32:41;;;;;;;6.28;3.80;;;16.80;62.80;;;;;;5033661;28;20179;-59
2024/03/21 04:35:07;;;;;;;4.25;3.55;;;16.70;62.70;;;;;;5034164;28;20275;-60
2024/03/21 04:37:35;;;;;;;4.55;3.75;;;16.80;62.80;;;;;;5032924;28;20262;-58
2024/03/21 04:40:01;;;;;;;3.63;3.33;;;16.70;62.70;;;;;;5033012;28;20322;-59
2024/03/21 04:42:26;;;;;;;3.70;3.40;;;16.70;62.70;;;;;;5033688;28;20266;-59
2024/03/21 04:44:52;;;;;;;4.20;3.80;;;16.70;62.70;;;;;;5033724;28;20298;-59
2024/03/21 04:47:17;;;;;;;3.80;3.45;;;16.70;62.70;;;;;;5032855;28;20168;-58
2024/03/21 04:49:43;;;;;;;3.88;3.13;;;16.70;62.70;;;;;;5033915;28;20179;-59
2024/03/21 04:52:11;;;;;;;4.13;3.20;;;16.70;62.70;;;;;;5033409;28;20255;-59
2024/03/21 04:54:37;;;;;;;4.72;3.22;;;16.70;62.70;;;;;;5033077;28;20194;-59
2024/03/21 04:57:02;;;;;;;4.25;3.25;;;16.70;62.70;;;;;;5033623;28;20164;-59
2024/03/21 04:59:28;;;;;;;3.20;2.90;;;16.70;62.80;;;;;;5033283;28;20612;-59
2024/03/21 05:01:55;;;;;;;2.90;2.70;;;16.70;62.70;;;;;;5032978;28;20180;-59
2024/03/21 05:04:20;;;;;;;2.70;2.50;;;16.70;62.70;;;;;;5032282;28;20200;-59
2024/03/21 05:06:46;;;;;;;3.40;3.10;;;16.70;62.70;;;;;;5033014;28;20180;-59
2024/03/21 05:09:11;;;;;;;3.47;2.92;;;16.70;62.80;;;;;;5033090;28;20179;-59
2024/03/21 05:11:37;;;;;;;2.90;2.58;;;16.70;62.80;;;;;;5033424;28;20271;-60
2024/03/21 05:14:02;;;;;;;2.97;2.78;;;16.70;62.70;;;;;;5032410;28;20254;-59
2024/03/21 05:16:28;;;;;;;2.83;2.60;;;16.70;62.80;;;;;;5033250;28;20756;-59
2024/03/21 05:18:55;;;;;;;2.67;2.47;;;16.70;62.80;;;;;;5033028;28;20179;-60
2024/03/21 05:21:20;;;;;;;2.55;2.33;;;16.70;62.70;;;;;;5032153;28;20176;-59
2024/03/21 05:23:46;;;;;;;2.38;2.17;;;16.70;62.80;;;;;;5033194;28;20263;-59
2024/03/21 05:26:11;;;;;;;2.63;2.42;;;16.70;62.70;;;;;;5032600;28;20216;-59
2024/03/21 05:28:37;;;;;;;2.03;1.92;;;16.70;62.80;;;;;;5032347;28;20182;-59
2024/03/21 05:31:20;;;;;;;2.40;2.20;;;16.70;62.70;;;;;;5033127;28;20201;-59
2024/03/21 05:33:47;;;;;;;1.90;1.80;;;16.70;62.70;;;;;;5033161;28;20180;-59
2024/03/21 05:36:12;;;;;;;2.30;2.03;;;16.70;62.80;;;;;;5031834;28;20681;-60
2024/03/21 05:38:38;;;;;;;2.35;2.00;;;16.70;62.70;;;;;;5032838;28;20207;-58
2024/03/21 05:41:04;;;;;;;1.75;1.65;;;16.70;62.70;;;;;;5032522;28;20293;-59
2024/03/21 05:43:29;;;;;;;2.33;2.10;;;16.70;62.70;;;;;;5032012;28;20172;-58
2024/03/21 05:45:55;;;;;;;1.77;1.67;;;16.60;62.70;;;;;;5032693;28;20211;-59
2024/03/21 05:48:20;;;;;;;2.30;2.00;;;16.70;62.80;;;;;;5032488;28;20187;-59
2024/03/21 05:50:46;;;;;;;2.30;1.77;;;16.60;62.60;;;;;;5032003;28;20183;-59
2024/03/21 05:53:11;;;;;;;1.63;1.52;;;16.60;62.60;;;;;;5032296;28;20172;-59
2024/03/21 05:55:37;;;;;;;1.70;1.60;;;16.60;62.60;;;;;;5032575;28;20180;-59
2024/03/21 05:58:03;;;;;;;1.60;1.50;;;16.60;62.60;;;;;;5031969;28;20168;-59
2024/03/21 06:00:29;;;;;;;1.77;1.60;;;16.60;62.60;;;;;;5032110;28;20186;-58
2024/03/21 06:02:54;;;;;;;2.75;1.60;;;16.60;62.60;;;;;;5031750;28;20171;-60
2024/03/21 06:05:20;;;;;;;2.15;1.88;;;16.60;62.60;;;;;;5032100;28;20218;-57
2024/03/21 06:07:45;;;;;;;1.95;1.40;;;16.60;62.60;;;;;;5032368;28;20174;-58
2024/03/21 06:10:11;;;;;;;2.45;1.67;;;16.60;62.60;;;;;;5031146;28;20187;-58
2024/03/21 06:12:36;;;;;;;1.60;1.50;;;16.60;62.60;;;;;;5032487;28;20168;-57
2024/03/21 06:15:02;;;;;;;1.40;1.30;;;16.60;62.60;;;;;;5032160;28;20198;-58
2024/03/21 06:17:27;;;;;;;1.80;1.13;;;16.60;62.60;;;;;;5031391;28;20547;-57
2024/03/21 06:19:53;;;;;;;1.20;1.17;;;16.60;62.60;;;;;;5032145;28;20263;-58
2024/03/21 06:22:18;;;;;;;1.50;1.40;;;16.60;62.60;;;;;;5031884;28;20176;-57
2024/03/21 06:24:44;;;;;;;1.60;1.50;;;16.60;62.60;;;;;;5031255;28;20241;-57
2024/03/21 06:27:09;;;;;;;1.38;1.27;;;16.60;62.60;;;;;;5031818;28;20186;-58
2024/03/21 06:29:35;;;;;;;1.42;1.33;;;16.60;62.60;;;;;;5032048;28;20186;-57
2024/03/21 06:32:00;;;;;;;1.95;1.40;;;16.60;62.60;;;;;;5031313;28;20221;-57
2024/03/21 06:34:26;;;;;;;1.52;1.42;;;16.60;62.60;;;;;;5031588;28;20731;-59
2024/03/21 06:36:52;;;;;;;1.98;1.17;;;16.60;63.40;;;;;;5031929;28;20172;-58
2024/03/21 06:39:19;;;;;;;2.17;1.10;;;16.60;63.40;;;;;;5030871;28;20601;-59
2024/03/21 06:41:45;;;;;;;1.35;1.25;;;16.60;62.50;;;;;;5031704;28;20228;-58
2024/03/21 06:44:10;;;;;;;1.50;1.20;;;16.60;62.50;;;;;;5031528;28;20186;-58
2024/03/21 06:46:38;;;;;;;1.15;1.02;;;16.60;62.60;;;;;;5031276;28;20195;-58
2024/03/21 06:49:04;;;;;;;1.15;1.05;;;16.60;62.60;;;;;;5031796;28;20176;-58
2024/03/21 06:51:30;;;;;;;1.30;1.20;;;16.60;62.60;;;;;;5031485;28;20594;-59
2024/03/21 06:53:55;;;;;;;1.98;1.20;;;16.60;62.60;;;;;;5031017;28;20168;-59
2024/03/21 06:56:21;;;;;;;0.80;0.80;;;16.60;62.70;;;;;;5031352;28;20222;-59
2024/03/21 06:58:46;;;;;;;1.23;1.13;;;16.60;62.60;;;;;;5031715;28;20191;-59
2024/03/21 07:01:12;;;;;;;1.00;1.00;;;16.70;62.60;;;;;;5030573;28;20164;-59
2024/03/21 07:03:39;;;;;;;1.10;1.00;;;16.70;62.50;;;;;;5031742;28;20191;-58
2024/03/21 07:06:05;;;;;;;1.33;1.00;;;16.70;62.50;;;;;;5031400;28;20658;-59
2024/03/21 07:08:30;;;;;;;2.47;1.05;;;16.70;62.40;;;;;;5029387;28;20195;-59
2024/03/21 07:10:56;;;;;;;1.15;0.98;;;16.70;62.30;;;;;;5031430;28;20195;-59
2024/03/21 07:13:22;;;;;;;1.23;0.98;;;16.70;62.30;;;;;;5030640;28;20180;-59
2024/03/21 07:15:47;;;;;;;1.75;0.95;;;16.70;62.30;;;;;;5031456;28;20254;-58
2024/03/21 07:18:13;;;;;;;1.45;1.00;;;16.70;62.30;;;;;;5031130;28;20164;-58
2024/03/21 07:20:39;;;;;;;1.38;0.95;;;16.70;62.30;;;;;;5030934;28;20183;-59
2024/03/21 07:23:06;;;;;;;1.40;0.88;;;16.60;62.20;;;;;;5031371;28;20164;-59
2024/03/21 07:25:31;;;;;;;1.45;0.88;;;16.60;62.20;;;;;;5031336;28;20208;-59
2024/03/21 07:27:57;;;;;;;2.47;1.00;;;16.70;62.30;;;;;;5032425;28;20182;-59
2024/03/21 07:30:22;;;;;;;0.77;0.77;;;16.60;62.30;;;;;;5035057;28;20175;-59
2024/03/21 07:32:51;;;;;;;1.85;1.05;;;16.60;62.30;;;;;;5035392;28;20219;-60
2024/03/21 07:35:17;;;;;;;1.10;1.00;;;16.60;62.30;;;;;;5034272;28;20568;-59
2024/03/21 07:37:42;;;;;;;1.08;0.98;;;16.60;62.30;;;;;;5035128;28;20202;-59
2024/03/21 07:40:08;;;;;;;0.82;0.82;;;16.60;62.30;;;;;;5034667;28;20232;-60
2024/03/21 07:42:34;;;;;;;0.90;0.90;;;16.60;62.40;;;;;;5034488;28;20176;-59
2024/03/21 07:45:02;;;;;;;1.13;1.00;;;16.60;62.30;;;;;;5035012;28;20254;-60
2024/03/21 07:47:27;;;;;;;2.03;0.80;;;16.60;62.30;;;;;;5034739;28;20769;-60
2024/03/21 07:49:54;;;;;;;1.65;1.02;;;16.60;62.70;;;;;;5034229;28;20176;-60
2024/03/21 07:52:20;;;;;;;0.90;0.90;;;16.50;62.40;;;;;;5034487;28;20212;-59
2024/03/21 07:54:46;;;;;;;0.90;0.70;;;16.60;62.40;;;;;;5035066;28;20210;-59
2024/03/21 07:57:11;;;;;;;0.73;0.73;;;16.50;62.40;;;;;;5033926;28;20184;-59
2024/03/21 07:59:37;;;;;;;0.73;0.73;;;16.50;62.40;;;;;;5034551;28;20638;-59
2024/03/21 08:02:03;;;;;;;0.70;0.70;;;16.60;62.40;;;;;;5034709;28;20172;-59
2024/03/21 08:04:29;;;;;;;0.88;0.88;;;16.60;62.30;;;;;;5033788;28;20733;-60
2024/03/21 08:06:57;;;;;;;0.82;0.80;;;16.60;62.20;;;;;;5034516;28;20276;-59
2024/03/21 08:09:23;;;;;;;0.73;0.73;;;16.60;62.20;;;;;;5034570;28;20231;-59
2024/03/21 08:11:48;;;;;;;0.68;0.68;;;16.60;62.20;;;;;;5033957;28;20726;-60
2024/03/21 08:14:14;;;;;;;0.95;0.70;;;16.60;62.20;;;;;;5034333;28;20542;-64
2024/03/21 08:16:39;;;;;;;2.30;1.08;;;16.60;62.40;;;;;;5033613;28;20180;-63
2024/03/21 08:19:05;;;;;;;1.33;0.93;;;16.60;62.20;;;;;;5034359;28;20175;-63
2024/03/21 08:21:31;;;;;;;1.15;1.00;;;16.70;62.20;;;;;;5034207;28;20216;-64
2024/03/21 08:23:56;;;;;;;0.73;0.70;;;16.70;62.20;;;;;;5033568;28;20707;-64
2024/03/21 08:26:22;;;;;;;1.08;0.75;;;16.70;62.20;;;;;;5034019;28;20211;-64
2024/03/21 08:28:47;;;;;;;4.57;0.95;;;16.70;62.10;;;;;;5036914;28;20282;-63
2024/03/21 08:31:13;;;;;;;1.50;1.00;;;16.70;62.30;;;;;;5043078;28;20309;-65
2024/03/21 08:33:38;;;;;;;4.13;0.93;;;16.70;62.20;;;;;;5044456;28;20300;-64
2024/03/21 08:36:04;;;;;;;1.30;0.80;;;16.70;62.20;;;;;;5042755;28;20247;-65
2024/03/21 08:38:31;;;;;;;1.35;0.70;;;16.70;62.20;;;;;;5037694;28;20218;-64
2024/03/21 08:40:57;;;;;;;1.52;0.85;;;16.80;62.20;;;;;;5033306;28;20409;-65
2024/03/21 08:43:22;;;;;;;2.50;1.00;;;16.70;62.10;;;;;;5033726;28;20180;-65
2024/03/21 08:45:48;;;;;;;0.98;0.70;;;16.80;62.20;;;;;;5033204;28;20294;-64
2024/03/21 08:48:14;;;;;;;3.05;0.93;;;16.80;62.20;;;;;;5033453;28;20226;-65
2024/03/21 08:50:40;;;;;;;1.50;0.93;;;16.80;62.10;;;;;;5033860;28;20224;-64
2024/03/21 08:53:06;;;;;;;2.05;0.70;;;16.80;62.00;;;;;;5032864;28;20175;-64
2024/03/21 08:55:33;;;;;;;2.50;0.70;;;16.80;61.90;;;;;;5033409;28;20260;-65
2024/03/21 08:57:58;;;;;;;1.35;0.88;;;16.90;61.90;;;;;;5033405;28;20310;-64
2024/03/21 09:00:27;;;;;;;3.47;0.90;;;16.80;61.90;;;;;;5030926;28;20199;-64
2024/03/21 09:02:52;;;;;;;0.90;0.73;;;16.80;62.00;;;;;;5032455;28;20254;-64
2024/03/21 09:05:18;;;;;;;0.77;0.73;;;16.90;62.00;;;;;;5033040;28;20242;-65
2024/03/21 09:07:44;;;;;;;1.85;0.70;;;16.90;62.00;;;;;;5033005;28;20624;-64
2024/03/21 09:10:10;;;;;;;1.55;0.77;;;16.90;62.00;;;;;;5033179;28;20202;-64
2024/03/21 09:12:36;;;;;;;5.97;1.00;;;16.90;61.90;;;;;;5033491;28;20253;-63
2024/03/21 09:15:01;;;;;;;1.55;0.90;;;16.90;61.80;;;;;;5032557;28;20172;-63
2024/03/21 09:17:27;;;;;;;0.65;0.60;;;17.00;61.70;;;;;;5032866;28;20176;-64
2024/03/21 09:19:52;;;;;;;1.38;0.85;;;17.00;61.70;;;;;;5032266;28;20177;-64
2024/03/21 09:22:18;;;;;;;1.65;0.80;;;17.00;61.70;;;;;;5033042;28;20168;-63
2024/03/21 09:24:46;;;;;;;0.70;0.70;;;17.00;61.80;;;;;;5032292;28;20246;-63
2024/03/21 09:27:12;;;;;;;0.60;0.60;;;16.90;61.70;;;;;;5032232;28;20171;-63
2024/03/21 09:29:38;;;;;;;0.93;0.80;;;16.90;61.80;;;;;;5032957;28;20544;-64
2024/03/21 09:32:03;;;;;;;4.50;0.90;;;17.00;61.80;;;;;;5032875;28;20591;-64
2024/03/21 09:34:29;;;;;;;1.35;0.60;;;17.00;61.80;;;;;;5031890;28;20666;-65
2024/03/21 09:36:55;;;;;;;1.15;0.88;;;17.00;61.70;;;;;;5032951;28;20171;-65
2024/03/21 09:39:20;;;;;;;1.90;0.80;;;17.00;61.70;;;;;;5032711;28;20267;-65
2024/03/21 09:41:46;;;;;;;1.67;0.80;;;16.90;61.80;;;;;;5031902;28;20310;-65
2024/03/21 09:44:13;;;;;;;0.60;0.55;;;17.00;62.70;;;;;;5031046;28;20258;-65
2024/03/21 09:46:39;;;;;;;2.22;0.80;;;16.90;61.70;;;;;;5031496;28;20266;-64
2024/03/21 09:49:06;;;;;;;1.60;0.85;;;17.00;61.80;;;;;;5030685;28;20203;-64
2024/03/21 09:51:32;;;;;;;1.65;0.90;;;17.00;61.70;;;;;;5030910;28;20180;-64
2024/03/21 09:53:57;;;;;;;0.93;0.75;;;17.00;61.60;;;;;;5031387;28;20537;-65
2024/03/21 09:56:23;;;;;;;2.08;0.70;;;17.00;61.50;;;;;;5030451;28;20639;-63
2024/03/21 09:58:49;;;;;;;1.52;0.65;;;17.00;61.40;;;;;;5031347;28;20218;-64
2024/03/21 10:01:21;;;;;;;0.73;0.50;;;17.20;61.30;;;;;;5032084;28;20229;-64
2024/03/21 10:03:51;;;;;;;0.90;0.60;;;17.20;61.10;;;;;;5031714;28;20510;-64
2024/03/21 10:06:17;;;;;;;3.50;0.82;;;17.30;61.10;;;;;;5032229;28;20354;-65
2024/03/21 10:08:42;;;;;;;1.48;0.70;;;17.20;61.10;;;;;;5032529;28;20199;-63
2024/03/21 10:11:08;;;;;;;1.13;0.70;;;17.30;61.20;;;;;;5031221;28;20273;-64
2024/03/21 10:13:34;;;;;;;1.27;0.55;;;17.30;61.10;;;;;;5032382;28;20171;-64
2024/03/21 10:16:00;;;;;;;1.67;0.93;;;17.40;61.00;;;;;;5032082;28;20275;-64
2024/03/21 10:18:25;;;;;;;1.95;0.70;;;17.50;60.80;;;;;;5031193;28;20263;-64
2024/03/21 10:20:51;;;;;;;0.90;0.75;;;17.60;60.70;;;;;;5032107;28;20172;-64
2024/03/21 10:23:17;;;;;;;1.50;1.00;;;17.50;60.80;;;;;;5028191;28;20198;-64
2024/03/21 10:25:46;;;;;;;0.73;0.70;;;17.50;60.80;;;;;;5030667;28;20212;-63
2024/03/21 10:28:19;;;;;;;1.48;0.70;;;17.50;61.00;;;;;;5030550;28;20182;-63
2024/03/21 10:30:45;;;;;;;1.77;0.98;;;17.40;61.30;;;;;;5030132;28;20669;-63
2024/03/21 10:33:17;;;;;;;2.28;0.98;;;17.40;61.40;;;;;;5030378;28;20175;-64
2024/03/21 10:35:43;;;;;;;2.15;0.60;;;17.40;61.30;;;;;;5031886;28;20597;-64
2024/03/21 10:38:15;;;;;;;2.13;1.02;;;17.50;61.20;;;;;;5030897;28;20627;-65
2024/03/21 10:40:50;;;;;;;1.50;0.82;;;17.50;61.00;;;;;;5031395;28;20240;-64
2024/03/21 10:43:15;;;;;;;1.30;0.90;;;17.50;61.10;;;;;;5029491;28;20700;-64
2024/03/21 10:45:42;;;;;;;2.03;0.70;;;17.50;61.30;;;;;;5028237;28;20219;-63
2024/03/21 10:48:23;;;;;;;1.95;0.82;;;17.50;61.40;;;;;;5029742;28;20199;-63
2024/03/21 10:50:48;;;;;;;1.02;0.85;;;17.50;61.60;;;;;;5030049;28;20190;-63
2024/03/21 10:53:19;;;;;;;1.83;0.85;;;17.50;61.60;;;;;;5028549;28;20167;-63
2024/03/21 10:55:45;;;;;;;1.35;0.70;;;17.50;61.50;;;;;;5029682;28;20226;-64
2024/03/21 10:58:14;;;;;;;3.60;0.75;;;17.50;61.60;;;;;;5030568;28;20183;-63
2024/03/21 11:00:39;;;;;;;2.17;0.98;;;17.60;61.50;;;;;;5029498;28;20226;-63
2024/03/21 11:03:05;;;;;;;1.50;0.68;;;17.60;61.40;;;;;;5032509;28;20538;-63
2024/03/21 11:05:30;;;;;;;1.90;0.70;;;17.70;61.40;;;;;;5033314;28;20313;-64
2024/03/21 11:07:56;;;;;;;1.15;0.80;;;17.70;61.20;;;;;;5032921;28;20594;-65
2024/03/21 11:10:22;;;;;;;0.85;0.73;;;17.80;61.10;;;;;;5033926;28;20175;-64
2024/03/21 11:12:48;;;;;;;1.17;0.70;;;17.70;61.30;;;;;;5033462;28;20172;-64
2024/03/21 11:15:14;;;;;;;1.48;0.80;;;17.70;61.30;;;;;;5034037;28;20187;-64
2024/03/21 11:17:40;;;;;;;1.55;0.90;;;17.80;61.20;;;;;;5034260;28;20676;-64
2024/03/21 11:20:09;;;;;;;1.80;1.15;;;17.80;61.10;;;;;;5033489;28;20187;-63
2024/03/21 11:22:35;;;;;;;1.15;0.68;;;17.80;61.10;;;;;;5034033;28;20190;-64
2024/03/21 11:25:02;;;;;;;2.28;0.88;;;17.80;61.10;;;;;;5033856;28;20223;-63
2024/03/21 11:27:28;;;;;;;1.50;0.88;;;17.90;61.20;;;;;;5031449;28;20190;-64
2024/03/21 11:29:53;;;;;;;2.15;0.95;;;17.90;61.30;;;;;;5034146;28;20176;-64
2024/03/21 11:32:23;;;;;;;1.05;0.77;;;17.80;61.40;;;;;;5033747;28;20561;-63
2024/03/21 11:34:49;;;;;;;1.50;0.50;;;17.90;61.40;;;;;;5033440;28;20206;-64
2024/03/21 11:37:15;;;;;;;1.35;0.73;;;17.80;61.50;;;;;;5032160;28;20186;-65
2024/03/21 11:39:41;;;;;;;1.95;0.70;;;17.80;61.50;;;;;;4997234;28;1050594;-64
2024/03/21 11:42:10;;;;;;;0.80;0.80;;;17.70;61.60;;;;;;5034361;28;20631;-67
2024/03/21 11:44:42;;;;;;;2.05;0.90;;;17.80;61.90;;;;;;5034825;28;20677;-65
2024/03/21 11:47:15;;;;;;;2.28;0.93;;;17.80;61.70;;;;;;5034675;28;20203;-67
2024/03/21 11:49:52;;;;;;;3.30;0.82;;;17.80;61.60;;;;;;5033375;28;20280;-67
2024/03/21 11:52:21;;;;;;;3.38;1.08;;;17.90;61.30;;;;;;5034305;28;20551;-65
2024/03/21 11:54:46;;;;;;;2.10;0.98;;;18.00;61.30;;;;;;5033470;28;20198;-66
2024/03/21 11:57:13;;;;;;;1.67;0.85;;;18.00;61.40;;;;;;5033156;28;20627;-66
2024/03/21 11:59:41;;;;;;;3.15;1.05;;;17.90;61.50;;;;;;5034062;28;20325;-66
2024/03/21 12:02:19;;;;;;;1.55;0.70;;;17.90;61.60;;;;;;5032429;28;20175;-67
2024/03/21 12:04:44;;;;;;;2.17;0.70;;;17.90;61.70;;;;;;5034043;28;20234;-65
2024/03/21 12:07:11;;;;;;;1.73;0.60;;;17.90;61.70;;;;;;5032502;28;20717;-65
2024/03/21 12:09:36;;;;;;;2.50;0.80;;;18.00;61.70;;;;;;5032148;28;20179;-66
2024/03/21 12:12:02;;;;;;;2.05;1.25;;;18.00;61.50;;;;;;5033124;28;20180;-66
2024/03/21 12:14:28;;;;;;;1.23;0.80;;;18.10;61.50;;;;;;5033482;28;20192;-65
2024/03/21 12:16:53;;;;;;;0.75;0.50;;;18.10;61.50;;;;;;5033441;28;20180;-66
2024/03/21 12:19:19;;;;;;;1.80;0.70;;;18.10;61.60;;;;;;5033835;28;20168;-66
2024/03/21 12:21:44;;;;;;;1.42;0.75;;;18.00;61.60;;;;;;5034553;28;20175;-67
2024/03/21 12:24:10;;;;;;;1.17;0.90;;;18.00;61.70;;;;;;5033292;28;20195;-67
2024/03/21 12:26:35;;;;;;;0.93;0.70;;;18.00;61.90;;;;;;5033917;28;20215;-67
2024/03/21 12:29:01;;;;;;;1.20;0.70;;;17.90;61.80;;;;;;5033912;28;20176;-67
2024/03/21 12:31:26;;;;;;;1.45;0.70;;;17.90;61.80;;;;;;5032941;28;20172;-68
2024/03/21 12:33:54;;;;;;;0.93;0.70;;;18.00;62.10;;;;;;5033916;28;20270;-70
2024/03/21 12:36:20;;;;;;;2.58;0.80;;;18.00;61.80;;;;;;5033810;28;20172;-71
2024/03/21 12:38:45;;;;;;;1.42;0.85;;;18.00;61.80;;;;;;5033461;28;20172;-70
2024/03/21 12:41:11;;;;;;;2.25;0.80;;;18.00;61.90;;;;;;5033407;28;20231;-69
2024/03/21 12:43:37;;;;;;;3.97;0.90;;;17.90;61.90;;;;;;5033851;28;20543;-70
2024/03/21 12:46:03;;;;;;;3.15;0.80;;;17.90;62.00;;;;;;5032755;28;20265;-68